Time;durP1;ratioP1;P1;durP2;ratioP2;P2;SDS_P1;SDS_P2;PMS_P1;PMS_P2;Temp;Humidity;BMP_temperature;BMP_pressure;BME280_temperature;BME280_humidity;BME280_pressure;Samples;Min_cycle;Max_cycle;Signal;HPM_P1;HPM_P2
2023/03/15 00:01:02;;;;;;;13.82;1.60;;;;;;;5.06;67.97;99466.91;5121517;28;20386;-64
2023/03/15 00:03:28;;;;;;;8.85;1.77;;;;;;;5.03;68.00;99477.13;5117125;28;20087;-64
2023/03/15 00:05:53;;;;;;;8.57;1.38;;;;;;;5.19;67.49;99469.66;5117962;28;20066;-64
2023/03/15 00:08:20;;;;;;;12.70;1.52;;;;;;;5.01;67.84;99466.69;5102753;28;20035;-64
2023/03/15 00:10:47;;;;;;;4.53;1.08;;;;;;;4.98;68.00;99483.06;5119983;28;20023;-64
2023/03/15 00:13:14;;;;;;;5.35;1.08;;;;;;;4.95;67.69;99476.28;5119126;28;20042;-64
2023/03/15 00:15:48;;;;;;;10.18;1.52;;;;;;;4.91;68.07;99476.88;5100363;28;20027;-64
2023/03/15 00:18:16;;;;;;;10.93;1.65;;;;;;;4.93;67.86;99493.47;5118652;28;20060;-64
2023/03/15 00:20:41;;;;;;;5.40;0.90;;;;;;;4.85;68.66;99494.47;5120456;28;20036;-64
2023/03/15 00:23:07;;;;;;;10.07;1.42;;;;;;;4.99;68.33;99498.03;5120383;28;20041;-64
2023/03/15 00:25:33;;;;;;;9.45;1.40;;;;;;;5.00;68.20;99478.38;5118087;28;20015;-64
2023/03/15 00:27:58;;;;;;;9.05;1.10;;;;;;;4.84;67.70;99502.66;5119627;28;20045;-64
2023/03/15 00:30:23;;;;;;;8.40;1.17;;;;;;;4.82;67.79;99504.69;5118222;28;20144;-64
2023/03/15 00:32:52;;;;;;;7.38;1.23;;;;;;;4.77;67.27;99505.28;5119986;28;20086;-64
2023/03/15 00:35:18;;;;;;;9.43;1.10;;;;;;;4.67;68.01;99496.78;5119920;28;20047;-64
2023/03/15 00:37:44;;;;;;;9.13;1.10;;;;;;;4.82;67.44;99526.00;5119897;28;20439;-64
2023/03/15 00:40:11;;;;;;;8.10;1.17;;;;;;;4.66;67.49;99524.44;5118062;28;20027;-64
2023/03/15 00:42:37;;;;;;;9.60;1.15;;;;;;;4.60;65.61;99504.72;5119394;28;20476;-64
2023/03/15 00:45:03;;;;;;;7.10;1.00;;;;;;;4.83;66.08;99524.97;5114596;28;20047;-64
2023/03/15 00:47:28;;;;;;;6.38;1.15;;;;;;;4.86;66.22;99527.25;5114243;28;20031;-64
2023/03/15 00:49:53;;;;;;;12.57;1.42;;;;;;;4.69;67.17;99532.88;5118587;28;20038;-64
2023/03/15 00:52:20;;;;;;;8.52;1.35;;;;;;;5.13;66.33;99538.94;5118372;28;20135;-64
2023/03/15 00:54:53;;;;;;;6.80;1.00;;;;;;;5.35;66.36;99545.03;5119745;28;20032;-64
2023/03/15 00:57:19;;;;;;;10.18;1.10;;;;;;;5.15;67.05;99536.91;5120211;28;20024;-64
2023/03/15 00:59:45;;;;;;;6.75;1.15;;;;;;;4.98;66.20;99522.22;5120220;28;20024;-64
2023/03/15 01:02:10;;;;;;;8.90;1.70;;;;;;;5.12;66.26;99550.63;5118840;28;20038;-64
2023/03/15 01:04:36;;;;;;;7.65;1.42;;;;;;;4.83;66.42;99530.31;5120194;28;20562;-64
2023/03/15 01:07:02;;;;;;;7.65;0.93;;;;;;;4.99;66.12;99547.88;5084333;28;20059;-64
2023/03/15 01:09:31;;;;;;;5.70;1.05;;;;;;;4.98;65.77;99547.03;5118450;28;20054;-64
2023/03/15 01:11:58;;;;;;;6.25;1.15;;;;;;;4.92;66.40;99543.31;5120121;28;20054;-65
2023/03/15 01:14:23;;;;;;;6.00;1.27;;;;;;;4.74;66.91;99563.47;5119123;28;20019;-65
2023/03/15 01:16:49;;;;;;;8.55;1.13;;;;;;;4.86;67.19;99567.22;5118394;28;20046;-65
2023/03/15 01:19:15;;;;;;;8.85;1.13;;;;;;;4.54;67.77;99566.78;5121684;28;20414;-65
2023/03/15 01:21:41;;;;;;;9.07;1.23;;;;;;;4.68;67.13;99544.56;5105706;28;20084;-64
2023/03/15 01:24:06;;;;;;;7.47;1.10;;;;;;;4.82;67.30;99571.31;5121237;28;20043;-64
2023/03/15 01:26:32;;;;;;;9.85;1.38;;;;;;;4.76;67.44;99572.88;5122443;28;20024;-64
2023/03/15 01:28:57;;;;;;;6.78;1.17;;;;;;;4.70;67.37;99573.66;5122262;28;20089;-65
2023/03/15 01:31:29;;;;;;;7.63;0.93;;;;;;;4.64;66.24;99569.94;5121607;28;20023;-64
2023/03/15 01:33:55;;;;;;;3.78;0.95;;;;;;;4.69;66.08;99575.50;5119499;28;20031;-64
2023/03/15 01:36:21;;;;;;;6.95;1.10;;;;;;;4.74;65.76;99592.78;5118502;28;20379;-64
2023/03/15 01:38:48;;;;;;;4.97;0.90;;;;;;;4.78;65.76;99586.88;5122471;28;20023;-64
2023/03/15 01:41:15;;;;;;;7.55;1.10;;;;;;;4.84;65.94;99587.94;5119622;28;20028;-64
2023/03/15 01:43:47;;;;;;;10.18;1.23;;;;;;;4.87;66.93;99590.22;5122048;28;20089;-64
2023/03/15 01:46:18;;;;;;;9.52;1.13;;;;;;;4.78;66.55;99588.72;5125710;28;20024;-64
2023/03/15 01:48:53;;;;;;;5.47;0.90;;;;;;;4.81;65.71;99580.34;5125950;28;20110;-64
2023/03/15 01:51:37;;;;;;;7.28;1.00;;;;;;;4.79;65.50;99596.50;5127331;28;20492;-64
2023/03/15 01:54:41;;;;;;;4.53;0.90;;;;;;;4.67;66.23;99592.72;5126772;28;20027;-65
2023/03/15 01:57:12;;;;;;;9.35;1.00;;;;;;;4.61;66.60;99599.63;5105690;28;20058;-64
2023/03/15 01:59:54;;;;;;;7.57;1.35;;;;;;;4.71;66.54;99604.63;5126208;28;20024;-65
2023/03/15 02:02:22;;;;;;;4.68;0.80;;;;;;;4.74;66.32;99609.59;5127004;28;20015;-64
2023/03/15 02:04:56;;;;;;;7.15;1.08;;;;;;;4.80;66.75;99603.50;5125073;28;20063;-64
2023/03/15 02:07:25;;;;;;;7.78;0.90;;;;;;;4.59;66.76;99614.97;5122581;28;20114;-64
2023/03/15 02:10:02;;;;;;;7.55;1.05;;;;;;;4.72;66.65;99616.94;5119338;28;20442;-64
2023/03/15 02:12:30;;;;;;;7.97;1.00;;;;;;;4.68;68.19;99621.81;5116867;28;20443;-64
2023/03/15 02:14:58;;;;;;;7.90;1.42;;;;;;;4.70;68.27;99625.13;5122109;28;20016;-64
2023/03/15 02:17:31;;;;;;;9.15;1.70;;;;;;;4.82;67.99;99621.94;5120857;28;20502;-64
2023/03/15 02:20:09;;;;;;;5.38;0.90;;;;;;;4.78;68.11;99626.00;5120943;28;20071;-64
2023/03/15 02:23:05;;;;;;;7.72;0.90;;;;;;;4.67;68.88;99620.19;5122508;28;20145;-64
2023/03/15 02:25:49;;;;;;;8.05;1.00;;;;;;;4.53;69.58;99636.19;5121602;28;20043;-64
2023/03/15 02:28:16;;;;;;;5.72;0.90;;;;;;;4.79;67.81;99639.13;5121929;28;20038;-64
2023/03/15 02:30:44;;;;;;;6.50;1.10;;;;;;;4.69;68.61;99641.28;5121939;28;20038;-64
2023/03/15 02:33:26;;;;;;;6.15;1.20;;;;;;;4.80;68.52;99634.63;5121724;28;20518;-64
2023/03/15 02:35:51;;;;;;;5.80;1.10;;;;;;;4.59;69.13;99638.94;5120730;28;20049;-64
2023/03/15 02:38:17;;;;;;;9.23;1.05;;;;;;;4.61;69.29;99649.41;5118500;28;20027;-64
2023/03/15 02:40:44;;;;;;;7.18;0.98;;;;;;;4.59;68.14;99638.94;5121666;28;20024;-64
2023/03/15 02:43:16;;;;;;;3.28;0.50;;;;;;;4.58;67.95;99650.63;5121623;28;20039;-64
2023/03/15 02:45:42;;;;;;;4.57;0.77;;;;;;;4.61;67.43;99642.25;5121787;28;20027;-64
2023/03/15 02:48:10;;;;;;;6.07;1.08;;;;;;;4.71;67.81;99653.41;5123476;28;20111;-65
2023/03/15 02:50:35;;;;;;;8.35;0.90;;;;;;;4.75;68.06;99661.84;5122331;28;20031;-64
2023/03/15 02:53:01;;;;;;;5.93;0.73;;;;;;;4.65;67.60;99648.84;5120885;28;20088;-65
2023/03/15 02:55:28;;;;;;;6.38;0.85;;;;;;;4.87;67.45;99662.19;5119246;28;20028;-64
2023/03/15 02:57:53;;;;;;;4.97;0.73;;;;;;;4.73;68.44;99661.22;5121530;27;20027;-64
2023/03/15 03:00:19;;;;;;;6.40;0.93;;;;;;;4.82;68.20;99672.59;5119671;28;20500;-64
2023/03/15 03:02:47;;;;;;;8.27;1.13;;;;;;;4.70;68.07;99664.25;5118924;28;20019;-64
2023/03/15 03:05:14;;;;;;;7.00;0.95;;;;;;;4.81;67.84;99678.94;5115470;28;20049;-64
2023/03/15 03:07:43;;;;;;;6.85;1.25;;;;;;;4.91;67.33;99672.28;5117415;28;20080;-64
2023/03/15 03:10:10;;;;;;;3.75;0.73;;;;;;;4.68;67.61;99661.78;5118283;28;20023;-64
2023/03/15 03:12:35;;;;;;;23.27;1.58;;;;;;;4.80;67.54;99680.78;5120427;28;20023;-64
2023/03/15 03:15:03;;;;;;;8.07;1.30;;;;;;;4.76;67.68;99673.34;5119183;28;20038;-64
2023/03/15 03:17:29;;;;;;;7.40;1.02;;;;;;;4.82;67.49;99677.91;5120140;28;20531;-64
2023/03/15 03:19:54;;;;;;;8.18;1.15;;;;;;;4.67;68.40;99683.31;5124790;28;20115;-64
2023/03/15 03:22:23;;;;;;;9.18;1.20;;;;;;;4.77;68.32;99689.16;5124437;28;20130;-63
2023/03/15 03:24:51;;;;;;;8.88;0.90;;;;;;;4.83;68.86;99690.22;5125798;28;20034;-64
2023/03/15 03:27:17;;;;;;;6.28;1.00;;;;;;;4.68;68.94;99696.44;5124379;28;20031;-64
2023/03/15 03:29:43;;;;;;;9.48;1.40;;;;;;;4.62;68.88;99713.16;5125671;28;20035;-64
2023/03/15 03:32:10;;;;;;;6.00;0.90;;;;;;;4.66;68.15;99717.09;5124555;27;20015;-65
2023/03/15 03:34:36;;;;;;;8.20;0.90;;;;;;;4.71;68.72;99728.03;5120288;28;20406;-64
2023/03/15 03:37:02;;;;;;;7.60;1.10;;;;;;;4.66;68.43;99716.28;5116193;28;20038;-64
2023/03/15 03:39:27;;;;;;;9.70;1.17;;;;;;;4.57;69.22;99728.91;5099044;28;20081;-65
2023/03/15 03:41:53;;;;;;;10.75;1.33;;;;;;;4.64;68.72;99737.78;5122426;28;20027;-64
2023/03/15 03:44:18;;;;;;;4.68;0.70;;;;;;;4.60;68.75;99741.84;5123479;28;20020;-64
2023/03/15 03:46:44;;;;;;;7.50;0.90;;;;;;;4.68;68.32;99738.25;5123259;28;20444;-64
2023/03/15 03:49:09;;;;;;;7.60;1.23;;;;;;;4.64;68.42;99736.97;5124625;28;20020;-64
2023/03/15 03:51:36;;;;;;;6.70;1.15;;;;;;;4.69;68.49;99730.03;5124128;28;20023;-64
2023/03/15 03:54:02;;;;;;;5.63;1.00;;;;;;;4.65;69.33;99749.28;5106865;28;20035;-64
2023/03/15 03:56:27;;;;;;;7.93;0.98;;;;;;;4.68;70.12;99752.38;5124102;28;20403;-64
2023/03/15 03:58:53;;;;;;;12.43;1.30;;;;;;;4.57;70.10;99752.88;5123244;28;20028;-64
2023/03/15 04:01:18;;;;;;;4.35;0.85;;;;;;;4.58;69.28;99749.19;5121840;28;20478;-64
2023/03/15 04:03:44;;;;;;;8.05;1.48;;;;;;;4.65;68.95;99758.09;5121680;28;20057;-64
2023/03/15 04:06:09;;;;;;;7.38;1.13;;;;;;;4.54;69.05;99757.75;5123485;28;20042;-64
2023/03/15 04:08:35;;;;;;;7.47;1.10;;;;;;;4.74;69.04;99763.31;5122905;28;20147;-64
2023/03/15 04:11:02;;;;;;;6.32;1.20;;;;;;;4.50;69.81;99751.13;5125308;28;20056;-64
2023/03/15 04:13:29;;;;;;;8.52;1.33;;;;;;;4.58;69.57;99769.69;5122452;28;20035;-64
2023/03/15 04:15:57;;;;;;;6.20;1.23;;;;;;;4.51;70.23;99774.94;5118888;28;20023;-64
2023/03/15 04:18:23;;;;;;;7.40;1.40;;;;;;;4.44;69.53;99756.19;5118677;28;20055;-64
2023/03/15 04:20:53;;;;;;;8.43;1.25;;;;;;;4.47;69.18;99765.66;5118963;28;20028;-65
2023/03/15 04:23:19;;;;;;;7.55;1.58;;;;;;;4.63;69.53;99773.41;5116832;28;20028;-64
2023/03/15 04:25:53;;;;;;;8.13;1.10;;;;;;;4.64;69.67;99777.75;5117405;28;20096;-69
2023/03/15 04:28:19;;;;;;;7.65;0.85;;;;;;;4.56;69.38;99779.69;5115485;28;20062;-65
2023/03/15 04:30:48;;;;;;;8.10;1.13;;;;;;;4.63;69.49;99780.59;5118026;28;20023;-64
2023/03/15 04:33:13;;;;;;;8.95;1.30;;;;;;;4.46;70.06;99779.97;5118397;28;20015;-64
2023/03/15 04:35:41;;;;;;;4.43;0.70;;;;;;;4.45;69.91;99770.34;5118718;28;20027;-64
2023/03/15 04:38:07;;;;;;;10.02;1.30;;;;;;;4.67;69.86;99784.56;5116991;28;20500;-64
2023/03/15 04:40:36;;;;;;;7.50;0.80;;;;;;;4.48;70.29;99785.94;5100369;28;20107;-64
2023/03/15 04:43:04;;;;;;;7.53;1.05;;;;;;;4.46;70.40;99788.78;5116824;28;20040;-64
2023/03/15 04:45:30;;;;;;;7.97;1.27;;;;;;;4.29;71.08;99770.53;5117311;28;20019;-64
2023/03/15 04:47:56;;;;;;;6.10;1.05;;;;;;;4.48;70.60;99796.59;5118699;28;20028;-67
2023/03/15 04:50:22;;;;;;;10.18;1.10;;;;;;;4.38;71.29;99796.06;5124477;28;20035;-64
2023/03/15 04:52:48;;;;;;;7.63;1.13;;;;;;;4.51;70.68;99806.06;5122056;28;20047;-63
2023/03/15 04:55:14;;;;;;;7.80;1.10;;;;;;;4.54;70.59;99803.88;5123121;28;20035;-65
2023/03/15 04:57:39;;;;;;;8.65;1.80;;;;;;;4.34;72.04;99810.72;5121999;28;20545;-63
2023/03/15 05:00:06;;;;;;;6.00;1.52;;;;;;;4.50;70.52;99809.72;5117440;28;20051;-64
2023/03/15 05:02:33;;;;;;;8.65;2.17;;;;;;;4.40;69.62;99786.88;5118035;28;20032;-64
2023/03/15 05:04:58;;;;;;;5.43;1.08;;;;;;;4.59;69.45;99808.63;5122552;28;20390;-64
2023/03/15 05:07:23;;;;;;;11.45;1.48;;;;;;;4.57;69.87;99806.16;5122327;28;20054;-64
2023/03/15 05:09:49;;;;;;;6.88;1.10;;;;;;;4.70;70.72;99808.16;5121029;28;20061;-64
2023/03/15 05:12:15;;;;;;;9.18;1.70;;;;;;;4.82;70.01;99813.84;5118188;28;20023;-64
2023/03/15 05:14:41;;;;;;;12.43;1.35;;;;;;;4.91;70.39;99818.06;5121365;28;20027;-65
2023/03/15 05:17:06;;;;;;;3.75;0.65;;;;;;;4.76;70.52;99814.59;5120285;28;20413;-64
2023/03/15 05:19:33;;;;;;;6.07;1.00;;;;;;;4.78;70.56;99825.91;5103426;28;20057;-64
2023/03/15 05:21:59;;;;;;;12.95;1.45;;;;;;;4.57;71.07;99806.16;5122637;28;20034;-65
2023/03/15 05:24:25;;;;;;;10.77;1.23;;;;;;;4.95;70.25;99832.66;5123121;28;20803;-64
2023/03/15 05:26:53;;;;;;;7.55;1.30;;;;;;;4.97;70.87;99838.66;5103592;28;20032;-64
2023/03/15 05:29:20;;;;;;;7.60;1.17;;;;;;;4.83;72.05;99832.31;5119715;28;20035;-66
2023/03/15 05:31:46;;;;;;;14.23;1.40;;;;;;;4.86;71.63;99847.09;5118182;28;20020;-66
2023/03/15 05:34:13;;;;;;;6.80;1.00;;;;;;;4.97;71.77;99848.47;5102097;28;20114;-67
2023/03/15 05:36:38;;;;;;;6.50;1.20;;;;;;;4.91;71.54;99844.72;5120343;28;20053;-64
2023/03/15 05:39:04;;;;;;;7.20;0.82;;;;;;;4.83;71.42;99831.47;5125644;28;20432;-65
2023/03/15 05:41:30;;;;;;;9.07;1.40;;;;;;;5.08;70.15;99858.66;5122321;28;20072;-64
2023/03/15 05:43:55;;;;;;;9.70;1.00;;;;;;;5.04;70.60;99862.72;5120475;28;20058;-65
2023/03/15 05:46:21;;;;;;;9.82;1.50;;;;;;;5.08;70.58;99867.50;5119038;28;20096;-65
2023/03/15 05:48:47;;;;;;;8.93;1.23;;;;;;;5.03;70.00;99861.88;5118809;28;20060;-64
2023/03/15 05:51:14;;;;;;;8.48;1.63;;;;;;;5.22;69.76;99865.81;5115267;28;20401;-65
2023/03/15 05:53:40;;;;;;;8.43;1.45;;;;;;;5.12;69.79;99882.09;5114674;28;20486;-64
2023/03/15 05:56:06;;;;;;;7.45;1.30;;;;;;;5.04;70.06;99879.53;5115928;28;20037;-65
2023/03/15 05:58:31;;;;;;;10.07;1.10;;;;;;;5.14;69.51;99885.41;5117697;28;20055;-65
2023/03/15 06:00:57;;;;;;;9.27;0.95;;;;;;;5.09;69.12;99892.31;5117336;28;20131;-64
2023/03/15 06:03:22;;;;;;;5.65;1.10;;;;;;;5.11;68.95;99892.97;5116242;28;20435;-65
2023/03/15 06:05:48;;;;;;;8.70;1.10;;;;;;;4.91;68.22;99880.19;5122620;28;20113;-65
2023/03/15 06:08:13;;;;;;;6.68;1.05;;;;;;;4.98;68.13;99904.28;5121727;28;20063;-65
2023/03/15 06:10:38;;;;;;;8.40;1.33;;;;;;;5.16;68.11;99903.88;5125122;28;20035;-64
2023/03/15 06:13:04;;;;;;;14.30;1.73;;;;;;;5.25;67.88;99915.28;5123292;28;20031;-65
2023/03/15 06:15:30;;;;;;;4.53;0.88;;;;;;;5.27;68.22;99913.28;5124389;28;20038;-64
2023/03/15 06:17:55;;;;;;;5.43;1.13;;;;;;;5.15;67.70;99888.91;5124796;28;20074;-65
2023/03/15 06:20:21;;;;;;;9.60;1.20;;;;;;;5.23;68.16;99912.81;5122448;28;20502;-64
2023/03/15 06:22:47;;;;;;;8.13;1.10;;;;;;;5.22;67.66;99915.66;5123406;28;20039;-64
2023/03/15 06:25:12;;;;;;;5.88;0.82;;;;;;;5.24;67.65;99918.97;5123821;28;20019;-65
2023/03/15 06:27:38;;;;;;;6.10;1.10;;;;;;;5.31;67.40;99922.53;5120782;28;20348;-64
2023/03/15 06:30:04;;;;;;;6.85;1.10;;;;;;;5.34;66.94;99930.19;5116546;28;20059;-64
2023/03/15 06:32:30;;;;;;;7.22;1.50;;;;;;;5.36;66.89;99936.13;5104739;28;20023;-64
2023/03/15 06:34:55;;;;;;;6.68;1.00;;;;;;;5.52;66.77;99946.59;5121703;28;20490;-65
2023/03/15 06:37:21;;;;;;;8.55;1.10;;;;;;;5.70;66.81;99956.88;5121732;28;20118;-65
2023/03/15 06:39:47;;;;;;;6.68;1.20;;;;;;;5.47;67.64;99934.84;5123047;28;20079;-64
2023/03/15 06:42:13;;;;;;;6.03;1.10;;;;;;;5.21;68.63;99922.00;5121826;27;20029;-64
2023/03/15 06:44:40;;;;;;;10.05;1.40;;;;;;;5.39;68.21;99960.59;5122011;27;20028;-65
2023/03/15 06:47:06;;;;;;;6.28;1.35;;;;;;;5.50;68.00;99966.50;5122095;28;20023;-65
2023/03/15 06:49:31;;;;;;;11.15;1.52;;;;;;;5.57;68.17;99978.91;5120266;28;20484;-64
2023/03/15 06:51:57;;;;;;;6.53;0.98;;;;;;;5.53;68.60;99971.44;5120646;28;20129;-64
2023/03/15 06:54:23;;;;;;;8.07;1.33;;;;;;;5.78;68.45;99980.78;5124025;28;20362;-65
2023/03/15 06:56:48;;;;;;;7.10;1.13;;;;;;;5.74;68.50;99974.16;5124358;28;20135;-65
2023/03/15 06:59:13;;;;;;;7.82;1.38;;;;;;;5.75;68.50;99975.00;5123501;28;20027;-64
2023/03/15 07:01:39;;;;;;;10.38;1.42;;;;;;;5.87;68.67;99978.81;5120334;28;20104;-64
2023/03/15 07:04:05;;;;;;;13.32;1.40;;;;;;;5.87;68.30;99985.00;5118488;28;20114;-64
2023/03/15 07:06:30;;;;;;;11.70;1.20;;;;;;;5.85;68.13;99962.16;5128930;28;20028;-65
2023/03/15 07:08:56;;;;;;;4.80;1.00;;;;;;;5.89;67.67;99956.28;5114789;28;20058;-68
2023/03/15 07:11:22;;;;;;;7.80;0.80;;;;;;;6.01;68.07;99988.66;5132779;28;20043;-68
2023/03/15 07:13:48;;;;;;;10.30;1.10;;;;;;;5.94;68.23;100006.47;5130452;28;20088;-65
2023/03/15 07:16:13;;;;;;;8.43;1.50;;;;;;;5.83;68.06;99988.25;5125812;28;20110;-64
2023/03/15 07:18:38;;;;;;;6.15;0.90;;;;;;;6.13;67.04;100002.34;5088397;28;20059;-64
2023/03/15 07:21:06;;;;;;;11.75;1.40;;;;;;;6.11;67.41;100007.03;5125256;28;20032;-65
2023/03/15 07:23:32;;;;;;;5.28;1.00;;;;;;;6.22;67.03;100016.41;5118283;28;20055;-64
2023/03/15 07:25:58;;;;;;;15.10;1.33;;;;;;;6.23;67.27;100028.75;5117357;28;20046;-65
2023/03/15 07:28:24;;;;;;;8.88;1.42;;;;;;;6.48;66.83;100034.53;5122581;28;20023;-64
2023/03/15 07:31:01;;;;;;;7.70;1.23;;;;;;;6.47;67.01;100036.38;5121714;28;20046;-64
2023/03/15 07:33:29;;;;;;;11.27;1.13;;;;;;;6.23;68.04;100050.13;5120508;28;20501;-65
2023/03/15 07:35:55;;;;;;;8.70;1.40;;;;;;;6.46;67.74;100053.44;5123551;28;20020;-65
2023/03/15 07:38:22;;;;;;;8.00;1.35;;;;;;;6.22;67.94;100035.09;5122027;28;20053;-65
2023/03/15 07:40:47;;;;;;;8.27;0.80;;;;;;;6.18;68.02;100023.13;5121123;28;20212;-65
2023/03/15 07:43:13;;;;;;;9.68;1.38;;;;;;;6.42;68.00;100062.84;5123077;28;20047;-64
2023/03/15 07:45:38;;;;;;;8.10;1.10;;;;;;;6.40;68.37;100062.22;5122945;28;20031;-64
2023/03/15 07:48:04;;;;;;;10.32;3.50;;;;;;;6.45;68.77;100066.97;5123583;28;20045;-65
2023/03/15 07:50:29;;;;;;;12.18;2.50;;;;;;;6.09;69.17;100063.34;5125222;28;20038;-65
2023/03/15 07:52:55;;;;;;;5.95;1.25;;;;;;;6.29;68.77;100068.03;5123393;28;20039;-64
2023/03/15 07:55:20;;;;;;;5.00;1.00;;;;;;;6.26;68.56;100068.44;5121120;28;20030;-65
2023/03/15 07:57:46;;;;;;;10.13;1.25;;;;;;;6.35;68.36;100068.13;5121240;28;20039;-64
2023/03/15 08:00:12;;;;;;;11.20;1.25;;;;;;;6.31;68.34;100060.69;5122390;28;20027;-65
2023/03/15 08:02:38;;;;;;;7.18;1.52;;;;;;;6.44;68.00;100079.53;5104657;28;20070;-64
2023/03/15 08:05:04;;;;;;;8.40;3.15;;;;;;;6.28;68.64;100077.09;5121994;28;20030;-65
2023/03/15 08:07:30;;;;;;;6.03;1.52;;;;;;;6.44;68.16;100094.72;5121300;28;20055;-65
2023/03/15 08:09:58;;;;;;;5.53;0.93;;;;;;;6.29;68.82;100095.63;5116636;28;20394;-64
2023/03/15 08:12:24;;;;;;;6.65;1.58;;;;;;;6.35;68.68;100092.16;5118741;27;20019;-65
2023/03/15 08:14:50;;;;;;;7.38;1.10;;;;;;;6.45;68.40;100096.38;5116266;28;20043;-64
2023/03/15 08:17:16;;;;;;;5.95;1.08;;;;;;;6.62;67.87;100097.78;5096289;28;20099;-64
2023/03/15 08:19:42;;;;;;;10.55;1.05;;;;;;;6.75;67.23;100107.78;5116168;28;20070;-65
2023/03/15 08:22:08;;;;;;;8.38;1.10;;;;;;;6.62;67.28;100110.31;5116547;28;20058;-65
2023/03/15 08:24:34;;;;;;;7.15;1.13;;;;;;;6.39;67.52;100089.13;5116402;28;20020;-64
2023/03/15 08:26:59;;;;;;;7.32;1.05;;;;;;;6.72;66.82;100121.53;5116388;28;20035;-65
2023/03/15 08:29:25;;;;;;;6.20;1.00;;;;;;;6.76;66.63;100117.47;5099357;28;20027;-64
2023/03/15 08:31:51;;;;;;;7.07;1.17;;;;;;;6.81;66.56;100115.88;5117757;28;20049;-64
2023/03/15 08:34:16;;;;;;;4.97;1.25;;;;;;;6.61;66.78;100122.03;5116141;28;20038;-64
2023/03/15 08:36:42;;;;;;;8.18;1.20;;;;;;;6.70;66.91;100120.91;5118684;28;20382;-64
2023/03/15 08:39:07;;;;;;;6.45;1.15;;;;;;;6.68;67.18;100123.75;5115008;28;20099;-65
2023/03/15 08:41:33;;;;;;;4.00;0.63;;;;;;;6.67;66.86;100126.63;5113189;28;20439;-64
2023/03/15 08:43:59;;;;;;;6.03;0.98;;;;;;;6.61;66.73;100140.75;5116104;28;20058;-64
2023/03/15 08:46:26;;;;;;;8.85;1.30;;;;;;;6.58;66.68;100134.75;5117636;28;20027;-65
2023/03/15 08:48:52;;;;;;;8.20;1.00;;;;;;;6.48;66.94;100139.59;5118076;28;20438;-64
2023/03/15 08:51:18;;;;;;;7.50;1.10;;;;;;;6.80;66.49;100153.50;5118415;28;20039;-65
2023/03/15 08:53:46;;;;;;;4.32;0.95;;;;;;;6.93;66.23;100145.63;5116748;28;20059;-65
2023/03/15 08:56:12;;;;;;;5.00;0.88;;;;;;;7.07;66.17;100150.06;5098231;28;20032;-64
2023/03/15 08:58:38;;;;;;;7.03;1.00;;;;;;;6.95;66.68;100167.63;5121633;28;20043;-65
2023/03/15 09:01:06;;;;;;;8.40;1.10;;;;;;;7.24;65.98;100180.03;5120632;28;20027;-64
2023/03/15 09:03:34;;;;;;;9.95;1.55;;;;;;;7.30;65.56;100178.44;5104908;28;20035;-66
2023/03/15 09:05:59;;;;;;;3.70;0.70;;;;;;;7.27;65.74;100185.00;5120872;28;20027;-66
2023/03/15 09:08:25;;;;;;;7.90;1.00;;;;;;;7.20;65.21;100172.59;5121106;28;20100;-65
2023/03/15 09:10:55;;;;;;;4.78;1.00;;;;;;;7.24;65.02;100192.59;5121291;28;20044;-65
2023/03/15 09:13:21;;;;;;;4.15;0.73;;;;;;;7.32;65.07;100202.34;5122403;28;20027;-64
2023/03/15 09:15:50;;;;;;;9.18;1.20;;;;;;;7.16;65.22;100211.47;5122987;28;20028;-64
2023/03/15 09:18:15;;;;;;;6.78;0.77;;;;;;;7.26;64.72;100206.63;5122343;28;20055;-65
2023/03/15 09:20:41;;;;;;;7.53;1.42;;;;;;;7.44;64.29;100211.50;5123002;28;20047;-65
2023/03/15 09:23:06;;;;;;;5.78;0.88;;;;;;;7.40;64.19;100215.59;5121199;28;20024;-65
2023/03/15 09:25:32;;;;;;;7.35;0.90;;;;;;;7.13;64.93;100212.69;5123346;28;20030;-65
2023/03/15 09:27:57;;;;;;;4.82;0.98;;;;;;;7.33;64.86;100210.19;5121201;28;20036;-64
2023/03/15 09:30:23;;;;;;;3.45;1.00;;;;;;;7.25;64.37;100223.69;5122915;28;20401;-64
2023/03/15 09:32:50;;;;;;;6.65;0.98;;;;;;;7.26;64.75;100228.03;5123100;28;20016;-66
2023/03/15 09:35:18;;;;;;;7.05;1.45;;;;;;;7.14;65.91;100241.06;5122696;28;20023;-65
2023/03/15 09:37:45;;;;;;;6.18;0.80;;;;;;;7.48;64.65;100240.38;5122481;28;20027;-65
2023/03/15 09:40:30;;;;;;;5.35;0.88;;;;;;;7.74;63.95;100247.78;5127536;28;20020;-64
2023/03/15 09:43:07;;;;;;;7.75;1.08;;;;;;;7.87;63.94;100252.41;5125194;28;20058;-65
2023/03/15 09:45:58;;;;;;;4.88;0.80;;;;;;;7.83;63.04;100253.84;5121166;28;20049;-65
2023/03/15 09:48:31;;;;;;;7.68;0.98;;;;;;;8.16;63.19;100253.25;5120823;28;20016;-66
2023/03/15 09:51:08;;;;;;;7.32;1.08;;;;;;;8.16;63.24;100263.97;5121073;28;20016;-65
2023/03/15 09:53:51;;;;;;;2.83;0.52;;;;;;;7.86;63.81;100269.53;5120981;28;20103;-65
2023/03/15 09:56:30;;;;;;;5.65;1.00;;;;;;;7.63;64.57;100263.56;5119364;28;20055;-65
2023/03/15 09:59:00;;;;;;;6.93;0.88;;;;;;;7.49;64.66;100267.97;5121659;27;20027;-69
2023/03/15 10:01:33;;;;;;;6.32;0.90;;;;;;;7.51;65.09;100281.97;5117231;28;20024;-64
2023/03/15 10:04:07;;;;;;;7.38;0.70;;;;;;;7.58;64.79;100272.16;5115629;28;20023;-65
2023/03/15 10:06:35;;;;;;;9.40;1.10;;;;;;;7.54;65.32;100277.06;5118399;28;20036;-65
2023/03/15 10:09:09;;;;;;;8.35;1.00;;;;;;;7.66;65.10;100281.94;5119793;28;20032;-64
2023/03/15 10:11:53;;;;;;;7.32;0.80;;;;;;;7.59;65.06;100281.03;5120844;28;20016;-65
2023/03/15 10:14:58;;;;;;;6.20;0.90;;;;;;;7.74;64.45;100287.13;5119969;28;20042;-65
2023/03/15 10:17:55;;;;;;;3.08;0.73;;;;;;;7.60;64.63;100296.91;5117906;28;20077;-65
2023/03/15 10:20:25;;;;;;;5.10;0.70;;;;;;;7.28;64.14;100304.44;5118661;28;20122;-65
2023/03/15 10:23:14;;;;;;;5.85;0.73;;;;;;;7.57;63.96;100312.53;5120231;28;20028;-65
2023/03/15 10:25:40;;;;;;;5.53;0.70;;;;;;;7.74;63.69;100304.03;5120002;28;20049;-64
2023/03/15 10:28:32;;;;;;;7.15;0.80;;;;;;;7.77;64.25;100319.72;5120342;28;20114;-66
2023/03/15 10:31:11;;;;;;;5.28;0.90;;;;;;;7.65;64.51;100325.78;5117718;27;20044;-64
2023/03/15 10:33:38;;;;;;;6.55;0.80;;;;;;;7.53;64.13;100320.13;5119764;28;20035;-66
2023/03/15 10:36:17;;;;;;;6.43;0.77;;;;;;;7.80;63.75;100333.75;5118958;28;20062;-64
2023/03/15 10:38:44;;;;;;;10.18;1.45;;;;;;;7.91;63.46;100335.91;5119659;28;20031;-65
2023/03/15 10:41:13;;;;;;;6.13;1.00;;;;;;;7.71;64.75;100341.06;5119661;28;20536;-65
2023/03/15 10:43:40;;;;;;;12.55;1.63;;;;;;;7.36;65.55;100334.78;5119723;28;20402;-65
2023/03/15 10:46:34;;;;;;;7.70;1.10;;;;;;;7.30;65.58;100349.72;5119727;28;20027;-65
2023/03/15 10:49:13;;;;;;;6.45;1.00;;;;;;;7.26;64.86;100353.81;5117908;28;20032;-65
2023/03/15 10:51:45;;;;;;;7.63;1.02;;;;;;;7.36;64.23;100348.97;5118637;28;20118;-64
2023/03/15 10:54:15;;;;;;;6.82;1.00;;;;;;;7.41;64.91;100359.09;5122248;28;20090;-64
2023/03/15 10:56:46;;;;;;;7.57;1.52;;;;;;;7.24;65.17;100356.66;5125702;28;20032;-65
2023/03/15 10:59:21;;;;;;;6.22;0.93;;;;;;;7.44;65.18;100361.41;5123825;28;20058;-65
2023/03/15 11:02:14;;;;;;;6.53;1.20;;;;;;;7.49;65.19;100365.19;5125124;28;20029;-65
2023/03/15 11:04:41;;;;;;;6.18;1.10;;;;;;;7.39;65.44;100363.84;5125666;28;20088;-67
2023/03/15 11:07:07;;;;;;;6.28;1.00;;;;;;;7.24;66.28;100372.72;5127127;28;20030;-65
2023/03/15 11:09:40;;;;;;;6.47;1.20;;;;;;;7.49;65.68;100377.75;5126746;28;20035;-66
2023/03/15 11:12:08;;;;;;;4.38;0.80;;;;;;;7.72;64.95;100390.97;5126281;28;20092;-65
2023/03/15 11:14:39;;;;;;;6.85;0.77;;;;;;;7.87;64.83;100393.56;5119166;28;20023;-65
2023/03/15 11:17:13;;;;;;;5.88;0.70;;;;;;;7.98;64.41;100390.41;5119225;28;20038;-65
2023/03/15 11:19:44;;;;;;;7.93;1.00;;;;;;;7.91;64.39;100390.34;5118716;28;20040;-65
2023/03/15 11:22:12;;;;;;;8.18;1.02;;;;;;;7.80;63.12;100409.56;5117412;28;20202;-65
2023/03/15 11:24:38;;;;;;;7.03;0.88;;;;;;;7.71;63.24;100403.50;5119302;28;20427;-66
2023/03/15 11:27:12;;;;;;;7.65;1.20;;;;;;;7.84;63.19;100386.72;5117672;28;20031;-65
2023/03/15 11:29:41;;;;;;;4.28;0.80;;;;;;;7.72;63.33;100399.00;5118727;28;20024;-66
2023/03/15 11:32:33;;;;;;;7.10;0.98;;;;;;;7.73;63.48;100412.19;5118615;28;20031;-65
2023/03/15 11:35:05;;;;;;;10.07;1.27;;;;;;;7.86;63.60;100413.34;5116277;28;20061;-65
2023/03/15 11:37:44;;;;;;;7.60;1.27;;;;;;;7.65;64.22;100411.47;5118494;28;20083;-65
2023/03/15 11:40:20;;;;;;;5.70;1.58;;;;;;;7.49;63.67;100412.53;5117047;28;20110;-65
2023/03/15 11:43:08;;;;;;;9.50;1.20;;;;;;;7.62;63.63;100420.72;5114988;28;20138;-65